Time;durP1;ratioP1;P1;durP2;ratioP2;P2;SDS_P1;SDS_P2;PMS_P1;PMS_P2;Temp;Humidity;BMP_temperature;BMP_pressure;BME280_temperature;BME280_humidity;BME280_pressure;Samples;Min_cycle;Max_cycle;Signal;HPM_P1;HPM_P2
2023/09/11 00:00:24;;;;;;;11.13;3.77;;;16.50;1.00;;;;;;5092910;28;20676;-85
2023/09/11 00:02:49;;;;;;;6.60;3.60;;;16.50;1.00;;;;;;5087963;28;20187;-86
2023/09/11 00:05:15;;;;;;;8.80;3.90;;;16.40;1.00;;;;;;5090977;28;20245;-85
2023/09/11 00:07:41;;;;;;;9.47;3.57;;;16.30;1.00;;;;;;5094523;28;20207;-85
2023/09/11 00:10:06;;;;;;;7.30;3.83;;;16.50;1.00;;;;;;5092929;28;20183;-85
2023/09/11 00:12:32;;;;;;;7.63;3.87;;;16.50;1.00;;;;;;5093367;28;20197;-86
2023/09/11 00:14:57;;;;;;;10.10;3.43;;;16.50;1.00;;;;;;5093067;28;20700;-85
2023/09/11 00:17:23;;;;;;;9.83;3.73;;;16.40;1.00;;;;;;5094168;28;20192;-85
2023/09/11 00:19:49;;;;;;;8.47;3.80;;;16.40;1.00;;;;;;5094059;28;20184;-85
2023/09/11 00:22:14;;;;;;;5.70;3.70;;;16.40;1.00;;;;;;5084694;28;20177;-86
2023/09/11 00:24:40;;;;;;;8.70;3.80;;;16.50;1.00;;;;;;5093267;28;20180;-85
2023/09/11 00:27:05;;;;;;;7.53;3.63;;;16.60;1.00;;;;;;5093173;28;20180;-85
2023/09/11 00:29:31;;;;;;;7.23;3.47;;;16.50;1.00;;;;;;5093144;28;20177;-85
2023/09/11 00:31:57;;;;;;;6.87;3.53;;;16.40;1.00;;;;;;5092575;28;20272;-85
2023/09/11 00:34:22;;;;;;;8.00;3.70;;;16.40;1.00;;;;;;5094450;28;20168;-85
2023/09/11 00:36:48;;;;;;;7.53;3.63;;;16.30;1.00;;;;;;5093176;28;20177;-85
2023/09/11 00:39:13;;;;;;;9.10;4.03;;;16.20;1.00;;;;;;5094139;28;20195;-85
2023/09/11 00:41:40;;;;;;;5.83;3.83;;;16.40;1.00;;;;;;5092497;28;20639;-85
2023/09/11 00:44:06;;;;;;;6.23;3.90;;;16.40;1.00;;;;;;5090669;28;20556;-85
2023/09/11 00:46:32;;;;;;;6.47;3.80;;;16.50;1.00;;;;;;5090833;28;20211;-85
2023/09/11 00:48:58;;;;;;;7.53;3.43;;;16.50;1.00;;;;;;5088795;28;20227;-85
2023/09/11 00:51:24;;;;;;;8.03;3.80;;;16.70;99.90;;;;;;5093379;28;20268;-85
2023/09/11 00:53:50;;;;;;;9.10;3.53;;;16.60;99.90;;;;;;5092834;28;20295;-85
2023/09/11 00:56:16;;;;;;;7.53;3.50;;;16.60;79.10;;;;;;5092809;28;20180;-86
2023/09/11 00:58:43;;;;;;;10.20;3.70;;;16.50;99.90;;;;;;5093697;28;20188;-85
2023/09/11 01:01:10;;;;;;;8.60;3.83;;;16.40;1.00;;;;;;5092264;28;20179;-85
2023/09/11 01:03:36;;;;;;;10.43;3.90;;;16.50;1.00;;;;;;5092702;28;20215;-85
2023/09/11 01:06:02;;;;;;;7.67;3.73;;;16.40;1.00;;;;;;5093575;28;20176;-85
2023/09/11 01:08:28;;;;;;;8.80;3.70;;;16.30;1.00;;;;;;5093919;28;20222;-85
2023/09/11 01:10:54;;;;;;;5.80;3.20;;;16.20;1.00;;;;;;5093260;28;20175;-85
2023/09/11 01:13:20;;;;;;;8.60;3.60;;;16.00;1.00;;;;;;5093755;28;20227;-85
2023/09/11 01:15:56;;;;;;;7.83;3.80;;;15.90;1.00;;;;;;5092462;28;20176;-85
2023/09/11 01:18:37;;;;;;;7.47;3.50;;;15.80;1.00;;;;;;5092222;28;20188;-85
2023/09/11 01:21:03;;;;;;;7.53;3.40;;;15.80;1.00;;;;;;5093040;28;20286;-85
2023/09/11 01:24:06;;;;;;;6.50;3.67;;;15.60;1.00;;;;;;5093557;28;20253;-85
2023/09/11 01:26:44;;;;;;;10.77;4.03;;;15.50;1.00;;;;;;5062073;28;20263;-85
2023/09/11 01:29:23;;;;;;;9.30;3.93;;;15.50;99.90;;;;;;5091827;28;20200;-84
2023/09/11 01:31:51;;;;;;;9.33;4.13;;;15.50;99.90;;;;;;5092955;28;20540;-85
2023/09/11 01:34:17;;;;;;;9.43;3.50;;;15.60;6.00;;;;;;5093107;28;20204;-85
2023/09/11 01:36:42;;;;;;;8.10;3.80;;;15.50;1.00;;;;;;5092000;28;20666;-85
2023/09/11 01:39:08;;;;;;;7.67;3.60;;;15.50;1.00;;;;;;5091799;28;20244;-85
2023/09/11 01:41:37;;;;;;;8.97;4.30;;;15.40;63.40;;;;;;5092277;28;20192;-85
2023/09/11 01:44:28;;;;;;;9.87;4.20;;;15.40;99.90;;;;;;5092089;28;20196;-85
2023/09/11 01:46:57;;;;;;;8.67;3.77;;;15.40;74.90;;;;;;5093022;28;20187;-84
2023/09/11 01:49:24;;;;;;;6.53;4.03;;;15.40;1.00;;;;;;5092856;28;20278;-85
2023/09/11 01:51:51;;;;;;;6.27;4.10;;;15.40;39.70;;;;;;5089723;28;20168;-83
2023/09/11 01:54:18;;;;;;;10.73;4.10;;;15.50;99.90;;;;;;5091265;28;20207;-85
2023/09/11 01:56:43;;;;;;;7.27;3.90;;;15.40;21.00;;;;;;5084854;28;20168;-84
2023/09/11 01:59:09;;;;;;;12.07;4.60;;;15.40;29.90;;;;;;5091773;28;20257;-84
2023/09/11 02:01:34;;;;;;;8.30;4.40;;;15.30;99.90;;;;;;5092679;28;20184;-85
2023/09/11 02:04:00;;;;;;;9.33;4.20;;;15.40;99.90;;;;;;5083167;28;20204;-84
2023/09/11 02:06:25;;;;;;;6.37;4.10;;;15.30;99.90;;;;;;5092904;28;20184;-84
2023/09/11 02:08:51;;;;;;;6.27;3.60;;;15.30;16.50;;;;;;5091690;28;20207;-85
2023/09/11 02:11:17;;;;;;;8.33;4.17;;;15.20;1.00;;;;;;5091425;28;20207;-86
2023/09/11 02:13:42;;;;;;;9.57;4.33;;;15.20;84.80;;;;;;5092764;28;20203;-85
2023/09/11 02:16:08;;;;;;;11.07;4.10;;;15.30;99.90;;;;;;5084497;28;20173;-84
2023/09/11 02:18:33;;;;;;;7.17;4.00;;;15.50;91.10;;;;;;5091121;28;20196;-85
2023/09/11 02:20:59;;;;;;;11.13;4.60;;;15.50;46.10;;;;;;5091190;28;20173;-85
2023/09/11 02:23:24;;;;;;;8.50;4.33;;;15.60;98.60;;;;;;5091635;28;20180;-84
2023/09/11 02:25:51;;;;;;;8.77;4.00;;;15.50;69.20;;;;;;5091506;28;20176;-84
2023/09/11 02:28:16;;;;;;;7.13;4.17;;;15.40;99.90;;;;;;5091631;28;20282;-84
2023/09/11 02:30:42;;;;;;;9.27;4.13;;;15.50;99.90;;;;;;5092506;28;20203;-84
2023/09/11 02:33:07;;;;;;;7.93;4.03;;;15.40;17.00;;;;;;5091486;28;20234;-84
2023/09/11 02:35:33;;;;;;;7.87;4.13;;;15.20;5.50;;;;;;5092762;28;20208;-84
2023/09/11 02:37:59;;;;;;;7.07;3.97;;;15.10;68.60;;;;;;5092909;28;20203;-84
2023/09/11 02:40:24;;;;;;;7.83;3.97;;;15.20;99.90;;;;;;5092593;28;20173;-85
2023/09/11 02:42:50;;;;;;;8.03;3.97;;;15.10;99.90;;;;;;5093110;28;20180;-85
2023/09/11 02:45:16;;;;;;;8.40;3.70;;;15.00;99.90;;;;;;5092982;28;20183;-84
2023/09/11 02:47:41;;;;;;;7.33;3.63;;;15.00;83.20;;;;;;5092712;28;20287;-84
2023/09/11 02:50:07;;;;;;;12.57;4.03;;;15.00;35.90;;;;;;5091905;28;20188;-84
2023/09/11 02:52:33;;;;;;;9.30;4.33;;;15.10;99.90;;;;;;5091677;28;20580;-84
2023/09/11 02:54:59;;;;;;;11.87;4.40;;;15.20;99.90;;;;;;5092048;28;20175;-85
2023/09/11 02:57:24;;;;;;;12.47;4.23;;;15.30;29.10;;;;;;5091596;28;20188;-84
2023/09/11 02:59:54;;;;;;;8.97;3.97;;;15.30;82.20;;;;;;5091931;28;20192;-84
2023/09/11 03:02:23;;;;;;;10.80;4.37;;;15.20;84.80;;;;;;5092861;28;20233;-84
2023/09/11 03:04:51;;;;;;;6.50;3.80;;;15.10;99.90;;;;;;5092852;28;20699;-84
2023/09/11 03:07:20;;;;;;;7.00;4.00;;;15.20;16.20;;;;;;5092808;28;20173;-84
2023/09/11 03:09:46;;;;;;;6.27;3.57;;;15.20;65.90;;;;;;5091942;28;20164;-84
2023/09/11 03:12:11;;;;;;;6.97;3.97;;;15.30;10.50;;;;;;5091394;28;20674;-84
2023/09/11 03:14:38;;;;;;;6.20;4.10;;;15.20;1.00;;;;;;5091822;28;20176;-84
2023/09/11 03:17:04;;;;;;;9.27;4.20;;;15.20;1.00;;;;;;5093125;28;20251;-85
2023/09/11 03:19:33;;;;;;;8.50;4.07;;;15.20;2.00;;;;;;5091921;28;20263;-84
2023/09/11 03:21:58;;;;;;;5.17;3.80;;;15.30;1.00;;;;;;5092722;28;20570;-84
2023/09/11 03:24:24;;;;;;;9.23;3.97;;;15.20;1.00;;;;;;5091981;28;20169;-85
2023/09/11 03:26:50;;;;;;;11.13;4.10;;;15.00;1.00;;;;;;5091739;28;20168;-84
2023/09/11 03:29:15;;;;;;;6.07;3.73;;;15.00;1.00;;;;;;5092977;28;20203;-85
2023/09/11 03:31:41;;;;;;;8.50;3.90;;;14.90;1.00;;;;;;5093097;28;20169;-84
2023/09/11 03:34:06;;;;;;;9.77;4.00;;;14.90;40.50;;;;;;5091826;28;20192;-84
2023/09/11 03:36:32;;;;;;;6.13;3.50;;;14.80;91.20;;;;;;5099283;28;20168;-85
2023/09/11 03:38:58;;;;;;;8.90;4.27;;;14.70;1.00;;;;;;5110881;28;20214;-85
2023/09/11 03:41:23;;;;;;;8.20;4.43;;;14.70;86.30;;;;;;5109682;28;20173;-85
2023/09/11 03:43:49;;;;;;;9.43;3.90;;;14.70;99.90;;;;;;5100092;28;20185;-84
2023/09/11 03:46:14;;;;;;;8.33;4.13;;;14.60;99.90;;;;;;5089611;28;20265;-84
2023/09/11 03:48:41;;;;;;;7.53;4.03;;;14.60;99.90;;;;;;5084328;28;20192;-84
2023/09/11 03:51:07;;;;;;;7.07;3.97;;;14.60;99.90;;;;;;5092969;28;20298;-84
2023/09/11 03:53:33;;;;;;;6.10;3.70;;;14.60;99.90;;;;;;5094057;28;20204;-84
2023/09/11 03:55:59;;;;;;;6.83;3.93;;;14.50;99.90;;;;;;5094118;28;20180;-85
2023/09/11 03:58:25;;;;;;;5.83;3.90;;;14.70;99.90;;;;;;5085760;28;20189;-84
2023/09/11 04:00:50;;;;;;;6.10;3.93;;;14.80;38.00;;;;;;5094917;28;20677;-83
2023/09/11 04:03:16;;;;;;;6.80;3.53;;;14.70;1.00;;;;;;5095090;28;20684;-84
2023/09/11 04:05:41;;;;;;;7.73;3.77;;;14.50;19.40;;;;;;5094174;28;20169;-84
2023/09/11 04:08:08;;;;;;;8.03;3.70;;;14.70;99.90;;;;;;5096589;28;20226;-84
2023/09/11 04:10:34;;;;;;;6.13;4.07;;;14.60;99.90;;;;;;5095344;28;20265;-86
2023/09/11 04:12:59;;;;;;;8.87;4.33;;;14.60;99.90;;;;;;5095026;28;20290;-84
2023/09/11 04:15:25;;;;;;;8.07;4.23;;;14.60;99.90;;;;;;5094029;28;20259;-85
2023/09/11 04:17:54;;;;;;;5.87;3.63;;;14.50;99.90;;;;;;5093604;28;20281;-84
2023/09/11 04:20:20;;;;;;;6.47;3.40;;;14.50;99.90;;;;;;5094954;28;20175;-84
2023/09/11 04:22:46;;;;;;;5.73;3.93;;;14.40;33.90;;;;;;5093690;28;20172;-84
2023/09/11 04:25:12;;;;;;;5.83;4.27;;;14.40;77.00;;;;;;5095115;28;20212;-84
2023/09/11 04:27:38;;;;;;;8.13;3.80;;;14.30;73.90;;;;;;5093540;28;20193;-84
2023/09/11 04:30:04;;;;;;;7.93;4.60;;;14.40;99.90;;;;;;5094521;28;20655;-85
2023/09/11 04:32:30;;;;;;;7.17;3.87;;;14.40;97.10;;;;;;5093527;28;20291;-84
2023/09/11 04:34:56;;;;;;;8.17;4.10;;;14.50;6.20;;;;;;5093567;28;20234;-84
2023/09/11 04:37:22;;;;;;;9.57;3.97;;;14.40;1.00;;;;;;5093765;28;20199;-84
2023/09/11 04:39:47;;;;;;;5.63;3.73;;;14.40;50.60;;;;;;5093236;28;20205;-84
2023/09/11 04:42:13;;;;;;;5.20;3.67;;;14.30;92.30;;;;;;5094731;28;20275;-85
2023/09/11 04:44:38;;;;;;;6.73;3.67;;;14.20;99.90;;;;;;5093439;28;20198;-84
2023/09/11 04:47:06;;;;;;;6.27;4.00;;;14.20;98.60;;;;;;5093641;28;20176;-84
2023/09/11 04:49:31;;;;;;;7.73;4.17;;;13.90;99.90;;;;;;5095393;28;20172;-87
2023/09/11 04:51:57;;;;;;;8.70;4.10;;;14.00;99.90;;;;;;5098462;28;20179;-84
2023/09/11 04:54:23;;;;;;;4.53;3.30;;;14.10;99.90;;;;;;5098435;28;20214;-85
2023/09/11 04:56:48;;;;;;;8.33;4.20;;;14.10;99.90;;;;;;5098829;28;20176;-85
2023/09/11 04:59:14;;;;;;;6.77;4.03;;;14.10;99.90;;;;;;5096643;28;20193;-87
2023/09/11 05:01:40;;;;;;;6.70;3.83;;;14.30;99.90;;;;;;5095418;28;20176;-85
2023/09/11 05:04:06;;;;;;;7.27;3.90;;;14.30;99.90;;;;;;5095798;28;20172;-83
2023/09/11 05:06:32;;;;;;;8.23;4.43;;;14.40;81.90;;;;;;5094105;28;20168;-85
2023/09/11 05:08:58;;;;;;;7.57;3.97;;;14.50;3.00;;;;;;5092294;28;20250;-86
2023/09/11 05:11:23;;;;;;;8.03;4.13;;;14.30;26.40;;;;;;5092822;28;20183;-85
2023/09/11 05:13:49;;;;;;;7.77;4.30;;;14.30;99.90;;;;;;5092428;28;20196;-84
2023/09/11 05:16:17;;;;;;;10.57;4.60;;;14.40;99.90;;;;;;5083398;28;20176;-86
2023/09/11 05:18:42;;;;;;;11.87;4.17;;;14.40;99.90;;;;;;5072349;28;20201;-87
2023/09/11 05:21:08;;;;;;;7.83;4.53;;;14.50;99.90;;;;;;5073621;28;20180;-86
2023/09/11 05:23:34;;;;;;;6.17;4.37;;;14.50;99.90;;;;;;5071864;28;20200;-86
2023/09/11 05:25:59;;;;;;;7.43;4.13;;;14.40;90.90;;;;;;5073990;28;20253;-86
2023/09/11 05:28:25;;;;;;;10.10;4.60;;;14.50;90.10;;;;;;5071818;28;20196;-88
2023/09/11 05:30:50;;;;;;;6.67;4.40;;;14.50;34.10;;;;;;5073762;28;20181;-84
2023/09/11 05:33:16;;;;;;;5.60;3.43;;;15.00;99.90;;;;;;5074084;28;20203;-84
2023/09/11 05:35:44;;;;;;;5.07;3.37;;;16.70;99.90;;;;;;5074937;28;20165;-85
2023/09/11 05:38:10;;;;;;;6.40;3.50;;;17.60;99.90;;;;;;5072416;28;20193;-87
2023/09/11 05:40:35;;;;;;;5.63;3.23;;;18.70;99.90;;;;;;5089529;28;20169;-86
2023/09/11 05:43:01;;;;;;;3.93;3.00;;;19.20;1.00;;;;;;5079124;28;20583;-84
2023/09/11 05:45:27;;;;;;;4.40;3.00;;;19.30;1.00;;;;;;5073453;28;20257;-84
2023/09/11 05:47:52;;;;;;;4.07;3.00;;;19.10;99.90;;;;;;5074390;28;20212;-85
2023/09/11 05:50:18;;;;;;;5.37;2.73;;;19.20;1.00;;;;;;5074238;28;20173;-85
2023/09/11 05:52:43;;;;;;;5.73;3.30;;;19.10;1.00;;;;;;5075493;28;20220;-85
2023/09/11 05:55:09;;;;;;;4.87;3.10;;;19.20;1.00;;;;;;5079826;28;20176;-84
2023/09/11 05:57:34;;;;;;;5.93;3.57;;;19.40;1.00;;;;;;5091225;28;20196;-84
2023/09/11 06:00:01;;;;;;;6.17;3.83;;;19.90;1.00;;;;;;5096742;28;20184;-88
2023/09/11 06:02:26;;;;;;;6.60;3.73;;;18.80;99.90;;;;;;5094137;28;20185;-87
2023/09/11 06:04:52;;;;;;;5.53;4.03;;;17.80;99.90;;;;;;5082697;28;20181;-84
2023/09/11 06:07:19;;;;;;;6.60;3.80;;;17.10;99.90;;;;;;5096787;28;20176;-84
2023/09/11 06:09:45;;;;;;;8.47;4.30;;;16.50;1.00;;;;;;5098490;28;20223;-84
2023/09/11 06:12:11;;;;;;;10.10;4.77;;;16.00;1.00;;;;;;5098078;28;20185;-84
2023/09/11 06:14:38;;;;;;;6.77;4.40;;;15.80;1.00;;;;;;5097678;28;20168;-85
2023/09/11 06:17:05;;;;;;;6.73;4.23;;;15.60;99.90;;;;;;5098008;28;20517;-85
2023/09/11 06:19:30;;;;;;;8.40;4.77;;;15.60;99.90;;;;;;5098517;28;20152;-84
2023/09/11 06:21:56;;;;;;;7.43;5.30;;;15.50;99.90;;;;;;5099123;28;20175;-84
2023/09/11 06:24:21;;;;;;;9.33;5.37;;;15.50;99.90;;;;;;5093126;28;20168;-85
2023/09/11 06:27:00;;;;;;;11.20;6.17;;;15.40;99.90;;;;;;5093885;28;20538;-87
2023/09/11 06:29:26;;;;;;;7.23;5.07;;;15.40;99.90;;;;;;5101953;28;20188;-84
2023/09/11 06:31:51;;;;;;;9.27;4.70;;;15.30;99.90;;;;;;5099244;28;20172;-87
2023/09/11 06:34:17;;;;;;;8.57;4.53;;;15.40;99.90;;;;;;5098308;28;20235;-84
2023/09/11 06:36:42;;;;;;;6.50;4.10;;;15.40;99.90;;;;;;5100485;28;20192;-83
2023/09/11 06:39:08;;;;;;;9.53;4.67;;;15.80;99.90;;;;;;5092198;28;20214;-84
2023/09/11 06:41:33;;;;;;;7.93;4.73;;;16.30;99.90;;;;;;5100191;28;20256;-83
2023/09/11 06:43:59;;;;;;;8.90;4.80;;;16.70;99.90;;;;;;5100981;28;20238;-83
2023/09/11 06:46:24;;;;;;;8.17;5.37;;;17.10;99.90;;;;;;5100827;28;20173;-84
2023/09/11 06:48:50;;;;;;;6.20;4.83;;;17.40;99.90;;;;;;5101418;28;20223;-86
2023/09/11 06:51:16;;;;;;;8.27;5.07;;;17.60;99.90;;;;;;5092810;28;20188;-83
2023/09/11 06:53:41;;;;;;;8.30;4.57;;;17.80;99.90;;;;;;5101625;28;20210;-83
2023/09/11 06:56:08;;;;;;;7.53;4.73;;;18.00;99.90;;;;;;5103269;28;20196;-83
2023/09/11 06:58:33;;;;;;;8.37;4.80;;;18.10;33.10;;;;;;5103510;28;20252;-83
2023/09/11 07:00:59;;;;;;;9.47;4.97;;;18.30;9.00;;;;;;5097460;28;20199;-85
2023/09/11 07:03:24;;;;;;;9.97;5.30;;;18.30;2.10;;;;;;5103033;28;20206;-85
2023/09/11 07:05:51;;;;;;;11.50;7.87;;;18.50;1.00;;;;;;5089937;28;20226;-83
2023/09/11 07:08:16;;;;;;;12.20;7.27;;;18.50;1.00;;;;;;5094571;28;20212;-82
2023/09/11 07:10:48;;;;;;;13.03;7.33;;;18.60;1.00;;;;;;5099029;28;20173;-84
2023/09/11 07:13:13;;;;;;;11.70;6.70;;;18.60;1.00;;;;;;5088032;28;20235;-85
2023/09/11 07:15:39;;;;;;;11.57;7.13;;;18.50;1.00;;;;;;5093070;28;20584;-87
2023/09/11 07:18:05;;;;;;;11.30;6.20;;;18.40;65.00;;;;;;5085636;28;20222;-84
2023/09/11 07:20:30;;;;;;;11.97;6.33;;;18.20;99.90;;;;;;5100993;28;20177;-86
2023/09/11 07:22:56;;;;;;;9.57;6.20;;;18.10;99.90;;;;;;5093817;28;20271;-87
2023/09/11 07:25:22;;;;;;;10.63;6.97;;;18.00;99.90;;;;;;5099764;28;20185;-87
2023/09/11 07:27:49;;;;;;;12.67;7.47;;;18.10;99.90;;;;;;5105182;28;20204;-87
2023/09/11 07:30:14;;;;;;;15.53;7.67;;;18.10;99.90;;;;;;5097005;28;20180;-86
2023/09/11 07:32:40;;;;;;;9.73;6.97;;;18.20;99.90;;;;;;5096334;28;20210;-87
2023/09/11 07:35:07;;;;;;;11.03;6.87;;;18.30;99.90;;;;;;5079062;28;20173;-88
2023/09/11 07:37:34;;;;;;;13.10;7.43;;;18.30;99.90;;;;;;5075149;28;20192;-86
2023/09/11 07:40:00;;;;;;;14.20;7.53;;;18.40;99.90;;;;;;5076340;28;20197;-86
2023/09/11 07:42:26;;;;;;;12.80;6.90;;;18.50;99.90;;;;;;5074832;28;20169;-86
2023/09/11 07:44:52;;;;;;;12.47;7.10;;;18.60;99.90;;;;;;5074843;28;20173;-85
2023/09/11 07:47:17;;;;;;;9.70;7.07;;;18.70;99.90;;;;;;5085846;28;20223;-86
2023/09/11 07:49:45;;;;;;;13.03;7.07;;;18.80;99.90;;;;;;5086834;28;20182;-87
2023/09/11 07:52:10;;;;;;;11.27;6.73;;;19.00;99.90;;;;;;5084193;28;20176;-84
2023/09/11 07:54:36;;;;;;;12.15;7.30;;;19.20;99.90;;;;;;5093939;28;20184;-86
2023/09/11 07:57:01;;;;;;;10.52;6.80;;;19.30;99.90;;;;;;5078364;28;20184;-85
2023/09/11 07:59:27;;;;;;;13.32;7.18;;;19.40;99.90;;;;;;5075131;28;20573;-88
2023/09/11 08:01:52;;;;;;;11.43;7.28;;;19.50;99.90;;;;;;5075011;28;20183;-86
2023/09/11 08:04:18;;;;;;;12.00;6.65;;;19.70;99.90;;;;;;5073852;28;20165;-85
2023/09/11 08:06:43;;;;;;;9.32;6.10;;;19.80;99.90;;;;;;5082222;28;20317;-86
2023/09/11 08:09:09;;;;;;;13.70;6.20;;;20.00;99.90;;;;;;5085312;28;20266;-87
2023/09/11 08:11:39;;;;;;;10.20;6.30;;;20.10;99.90;;;;;;5095167;28;20176;-86
2023/09/11 08:14:06;;;;;;;10.73;5.93;;;20.30;99.90;;;;;;5088374;28;20205;-85
2023/09/11 08:16:31;;;;;;;9.60;6.40;;;20.50;98.70;;;;;;5088857;28;20179;-86
2023/09/11 08:18:57;;;;;;;9.05;6.15;;;20.70;90.20;;;;;;5078347;28;20284;-86
2023/09/11 08:21:23;;;;;;;9.10;5.43;;;20.80;7.30;;;;;;5081573;28;20168;-86
2023/09/11 08:23:48;;;;;;;10.50;6.32;;;20.90;34.90;;;;;;5093160;28;20225;-87
2023/09/11 08:26:14;;;;;;;12.98;6.00;;;21.00;1.00;;;;;;5094717;28;20643;-86
2023/09/11 08:28:39;;;;;;;11.45;5.43;;;21.20;1.00;;;;;;5093392;28;20623;-84
2023/09/11 08:31:05;;;;;;;9.05;5.88;;;21.30;1.00;;;;;;5094405;28;20212;-84
2023/09/11 08:33:31;;;;;;;11.27;5.90;;;21.50;1.00;;;;;;5084415;28;20185;-86
2023/09/11 08:35:56;;;;;;;13.00;6.03;;;21.60;1.00;;;;;;5073824;28;20177;-86
2023/09/11 08:38:24;;;;;;;12.80;5.88;;;21.80;1.00;;;;;;5093308;28;20274;-86
2023/09/11 08:40:50;;;;;;;14.00;5.90;;;22.10;1.00;;;;;;5094541;28;20165;-84
2023/09/11 08:43:15;;;;;;;12.88;5.70;;;22.20;1.00;;;;;;5094789;28;20174;-86
2023/09/11 08:45:41;;;;;;;10.70;5.68;;;22.50;1.00;;;;;;5093527;28;20175;-86
2023/09/11 08:48:13;;;;;;;10.20;5.75;;;22.60;1.00;;;;;;5094396;28;20199;-86
2023/09/11 08:50:56;;;;;;;7.72;5.40;;;22.80;1.00;;;;;;5093117;28;20180;-86
2023/09/11 08:53:23;;;;;;;7.53;5.22;;;23.00;99.90;;;;;;5093300;28;20269;-86
2023/09/11 08:55:49;;;;;;;10.85;5.28;;;23.20;99.90;;;;;;5087722;28;20176;-85
2023/09/11 08:58:19;;;;;;;9.73;5.50;;;23.50;99.90;;;;;;5090520;28;20265;-86
2023/09/11 09:00:45;;;;;;;10.52;5.25;;;23.50;14.00;;;;;;5094334;28;20160;-85
2023/09/11 09:03:12;;;;;;;7.50;4.93;;;23.70;55.50;;;;;;5093206;28;20179;-85
2023/09/11 09:05:38;;;;;;;10.23;5.43;;;23.90;1.00;;;;;;5093044;28;20187;-85
2023/09/11 09:08:07;;;;;;;10.45;4.75;;;24.10;99.90;;;;;;5093734;28;20208;-86
2023/09/11 09:10:32;;;;;;;9.85;5.38;;;24.20;99.90;;;;;;5092487;28;20176;-85
2023/09/11 09:12:59;;;;;;;7.57;5.15;;;24.30;1.00;;;;;;5092567;28;20195;-86
2023/09/11 09:15:27;;;;;;;7.68;5.20;;;24.50;99.90;;;;;;5094167;28;20209;-85
2023/09/11 09:17:54;;;;;;;8.45;4.32;;;24.60;99.90;;;;;;5093031;28;20184;-85
2023/09/11 09:20:20;;;;;;;10.77;4.90;;;24.70;1.00;;;;;;5092365;28;20164;-85
2023/09/11 09:22:55;;;;;;;10.55;4.68;;;24.90;1.00;;;;;;5092922;28;20173;-85
2023/09/11 09:25:22;;;;;;;7.78;4.97;;;25.00;1.00;;;;;;5094215;28;20543;-81
2023/09/11 09:27:48;;;;;;;5.45;4.22;;;25.10;1.00;;;;;;5093123;28;20681;-86
2023/09/11 09:30:21;;;;;;;10.32;4.78;;;25.30;75.20;;;;;;5092680;28;20172;-86
2023/09/11 09:32:48;;;;;;;9.82;4.65;;;25.40;37.70;;;;;;5089984;28;20370;-86
2023/09/11 09:35:16;;;;;;;8.07;4.40;;;25.60;1.00;;;;;;5091943;28;20191;-85
2023/09/11 09:37:52;;;;;;;7.20;4.97;;;25.70;99.90;;;;;;5090600;28;20220;-84
2023/09/11 09:40:38;;;;;;;11.20;4.28;;;25.80;99.90;;;;;;5094841;28;20172;-84
2023/09/11 09:43:05;;;;;;;10.50;4.72;;;25.80;99.90;;;;;;5095379;28;20168;-83
2023/09/11 09:45:39;;;;;;;10.52;4.55;;;25.90;1.00;;;;;;5095116;28;20172;-82
2023/09/11 09:48:14;;;;;;;9.25;4.25;;;26.00;1.00;;;;;;5095328;28;20199;-80
2023/09/11 09:50:45;;;;;;;10.85;4.40;;;26.30;1.00;;;;;;5096950;28;20258;-83
2023/09/11 09:53:41;;;;;;;16.88;5.88;;;26.40;99.90;;;;;;5095898;28;20202;-82
2023/09/11 09:56:09;;;;;;;8.77;4.28;;;26.50;1.00;;;;;;5096295;28;20157;-84
2023/09/11 09:58:39;;;;;;;8.15;4.32;;;26.60;99.90;;;;;;5095422;28;20287;-83
2023/09/11 10:01:06;;;;;;;9.40;4.53;;;26.80;99.90;;;;;;5091458;28;20172;-83
2023/09/11 10:03:45;;;;;;;16.15;5.95;;;26.90;99.90;;;;;;5087149;28;20218;-84
2023/09/11 10:06:19;;;;;;;8.65;4.63;;;27.10;1.00;;;;;;5095328;28;20168;-85
2023/09/11 10:08:46;;;;;;;23.48;12.63;;;27.20;99.90;;;;;;5091710;22;20222;-83
2023/09/11 10:11:28;;;;;;;60.25;36.20;;;27.30;99.90;;;;;;5031326;28;20171;-84
2023/09/11 10:13:58;;;;;;;56.17;32.92;;;27.50;99.90;;;;;;5035798;28;20336;-84
2023/09/11 10:16:27;;;;;;;5.90;4.32;;;27.60;1.00;;;;;;5036449;28;20166;-83
2023/09/11 10:18:54;;;;;;;8.48;5.30;;;27.70;1.00;;;;;;5036262;28;20202;-84
2023/09/11 10:21:20;;;;;;;13.15;5.85;;;27.80;1.00;;;;;;5033988;28;20177;-84
2023/09/11 10:23:46;;;;;;;11.45;5.63;;;27.80;1.00;;;;;;5030225;28;20212;-82
2023/09/11 10:26:18;;;;;;;11.25;5.35;;;27.70;1.00;;;;;;5035549;28;20181;-79
2023/09/11 10:28:48;;;;;;;7.38;4.30;;;27.90;1.00;;;;;;5040544;28;20195;-81
2023/09/11 10:31:19;;;;;;;8.27;3.67;;;28.10;1.00;;;;;;5038143;28;20174;-81
2023/09/11 10:33:48;;;;;;;7.10;3.75;;;28.00;99.90;;;;;;5041127;28;20198;-79
2023/09/11 10:36:14;;;;;;;8.88;4.10;;;28.10;99.90;;;;;;5035167;28;20224;-80
2023/09/11 10:38:43;;;;;;;7.95;3.80;;;28.10;99.90;;;;;;5035232;28;20194;-78
2023/09/11 10:41:09;;;;;;;12.27;3.78;;;28.10;99.90;;;;;;5035902;28;20210;-79
2023/09/11 10:43:35;;;;;;;10.23;4.38;;;28.20;99.90;;;;;;5035367;28;20196;-79
2023/09/11 10:46:22;;;;;;;9.45;3.72;;;28.30;1.00;;;;;;5035256;28;20201;-79
2023/09/11 10:48:50;;;;;;;11.57;4.70;;;28.30;99.90;;;;;;5030562;28;20194;-79
2023/09/11 10:51:16;;;;;;;10.52;4.70;;;28.30;1.00;;;;;;5033538;28;20174;-79
2023/09/11 10:53:42;;;;;;;9.25;4.03;;;28.50;1.00;;;;;;5035521;28;20232;-79
2023/09/11 10:56:08;;;;;;;12.10;4.22;;;28.70;1.00;;;;;;5035997;28;20176;-78
2023/09/11 10:58:35;;;;;;;9.32;4.22;;;28.70;1.00;;;;;;5036105;28;20274;-79
2023/09/11 11:01:03;;;;;;;11.98;4.38;;;28.80;99.90;;;;;;5038905;28;20171;-79
2023/09/11 11:03:30;;;;;;;8.73;5.10;;;28.90;1.00;;;;;;5039276;28;20198;-79
2023/09/11 11:05:58;;;;;;;9.13;4.57;;;29.10;1.00;;;;;;5040147;28;20178;-79
2023/09/11 11:08:24;;;;;;;10.52;4.75;;;28.90;1.00;;;;;;5039389;28;20214;-79
2023/09/11 11:10:56;;;;;;;7.57;4.43;;;29.10;1.00;;;;;;5040234;28;20178;-79
2023/09/11 11:13:23;;;;;;;10.48;4.53;;;29.30;1.00;;;;;;5039409;28;20269;-79
2023/09/11 11:15:48;;;;;;;9.85;4.63;;;29.30;1.00;;;;;;5040189;28;20225;-79
2023/09/11 11:18:24;;;;;;;8.43;4.43;;;29.40;1.00;;;;;;5039485;28;20198;-79
2023/09/11 11:21:07;;;;;;;8.05;4.40;;;29.60;1.00;;;;;;5040230;28;20174;-79
2023/09/11 11:23:34;;;;;;;8.13;4.32;;;29.80;99.90;;;;;;5040596;28;20637;-79
2023/09/11 11:26:03;;;;;;;11.63;4.40;;;29.90;1.00;;;;;;5039782;28;20178;-80
2023/09/11 11:28:41;;;;;;;10.45;4.70;;;30.00;99.90;;;;;;5041014;28;20229;-79
2023/09/11 11:31:18;;;;;;;11.65;6.20;;;30.10;99.90;;;;;;5041321;28;20166;-79
2023/09/11 11:33:51;;;;;;;13.07;5.40;;;30.20;99.90;;;;;;5035782;28;20696;-79
2023/09/11 11:36:18;;;;;;;11.63;5.70;;;30.30;99.90;;;;;;5021937;28;20650;-79
2023/09/11 11:38:44;;;;;;;11.88;4.30;;;30.30;99.90;;;;;;5021685;28;20205;-79
2023/09/11 11:41:11;;;;;;;9.27;4.30;;;30.40;99.90;;;;;;5018494;28;20642;-84
2023/09/11 11:43:37;;;;;;;9.70;4.03;;;30.30;99.90;;;;;;5019449;28;20514;-79
2023/09/11 11:46:06;;;;;;;9.38;4.40;;;30.30;99.90;;;;;;5017986;28;20213;-82
2023/09/11 11:48:33;;;;;;;11.27;4.30;;;30.40;99.90;;;;;;5017257;28;20222;-83
2023/09/11 11:50:58;;;;;;;13.80;4.55;;;30.50;99.90;;;;;;5017734;28;20198;-84
2023/09/11 11:53:24;;;;;;;10.32;4.40;;;30.70;99.90;;;;;;5017423;28;20235;-83
2023/09/11 11:55:56;;;;;;;9.57;4.18;;;30.80;99.90;;;;;;5018896;28;20174;-83
2023/09/11 11:58:22;;;;;;;11.85;4.65;;;30.80;99.90;;;;;;5018096;28;20191;-84
2023/09/11 12:01:00;;;;;;;13.43;4.38;;;30.80;99.90;;;;;;5016074;28;20171;-82
2023/09/11 12:03:29;;;;;;;10.00;3.90;;;30.90;99.90;;;;;;5016906;28;20548;-83
2023/09/11 12:05:59;;;;;;;10.30;4.13;;;31.00;99.90;;;;;;5036616;28;20178;-84
2023/09/11 12:08:25;;;;;;;10.65;4.40;;;31.00;99.90;;;;;;5037657;28;20586;-82
2023/09/11 12:10:51;;;;;;;8.80;4.13;;;31.00;99.90;;;;;;5034987;28;20308;-83
2023/09/11 12:13:23;;;;;;;10.45;3.95;;;31.20;99.90;;;;;;5046793;28;20289;-86
2023/09/11 12:15:57;;;;;;;11.13;3.80;;;31.40;99.90;;;;;;5033606;28;20206;-83
2023/09/11 12:18:23;;;;;;;9.38;4.35;;;31.60;99.90;;;;;;5033632;28;20581;-81
2023/09/11 12:20:59;;;;;;;12.50;4.20;;;31.50;99.90;;;;;;5030553;28;20181;-82
2023/09/11 12:23:25;;;;;;;10.90;4.10;;;31.60;99.90;;;;;;5035544;28;20190;-82
2023/09/11 12:25:51;;;;;;;10.65;4.45;;;31.90;99.90;;;;;;5035040;28;20188;-82
2023/09/11 12:28:18;;;;;;;10.82;4.25;;;31.90;99.90;;;;;;5036439;28;20194;-80
2023/09/11 12:30:45;;;;;;;11.60;4.38;;;32.00;99.90;;;;;;5033236;28;20617;-83
2023/09/11 12:33:14;;;;;;;8.65;4.22;;;31.90;99.90;;;;;;5031779;28;20677;-84
2023/09/11 12:35:42;;;;;;;9.57;4.25;;;32.10;99.90;;;;;;5036354;28;20170;-83
2023/09/11 12:38:10;;;;;;;9.55;4.25;;;32.20;99.90;;;;;;5037125;28;20231;-82
2023/09/11 12:40:36;;;;;;;11.43;3.80;;;32.50;99.90;;;;;;5035696;28;20167;-83
2023/09/11 12:43:03;;;;;;;8.00;3.90;;;32.40;99.90;;;;;;5034458;28;20186;-85
2023/09/11 12:45:29;;;;;;;9.57;4.10;;;32.30;99.90;;;;;;5034366;28;20167;-86
2023/09/11 12:47:54;;;;;;;7.38;3.70;;;32.30;99.90;;;;;;5026666;28;20194;-83